Mc Entire JNGB Airport
KMMT : now visible

Airfield :











YOU CAN JOIN US ON...

 
LOGIN :

Register | Disclaimer

   EN    FR    IT 

 









Legend :    VFR   Marginal VFR   IFR   Intensive IFR   Very Intensive IFR
Visi :
Ceiling :
>= 8 km
>= 3000ft
5 to 8 km
1000 to 3000 ft
1500m to 5 km
500 to 1000 ft
800 to 1500m
200 to 500 ft
< 800m
< 200 ft
Symbols :   Thunderstorms  Fog  Heavy snow  Heavy precipitations  Wind > 20 kt






- Airport Elevation : 254 ft


KMMT - Mc Entire JNGB

CURRENT METAR :
  • 080555Z AUTO 00000KT 10SM CLR 06/05 A3028 RMK AO2 SLP257 T00550054 10118 20054 55004 $

EXPIRED METARs :
  • 080455Z AUTO 00000KT 10SM CLR 06/06 A3029 RMK AO2 SLP260 T00580057 402041008 $
  • 080355Z AUTO 00000KT 10SM CLR 07/07 A3028 RMK AO2 SLP257 T00680067 $

TAF TAF KMMT
Valid from the 07 at 23:00 until the 09 at 05:00 UTC


072300Z 0723/0905 VRB06KT 9999 FEW030 QNH3020INS
BECMG 0811/0812 VRB06KT 9999 BKN026 QNH3015INS TX22/0820Z TN08/0811Z
KZJX FIR / North America



MET'MAP, your aeronautical weather chart ! - Copyright ORBIFLY December 2007 - Disclaimer

ORBIFLY MET'MAP TEAM :

Programming & Development : Alexandra Zaïnal
Original concept : Baudouin d'Aumeries
Technical & hardware support : Manuel Goepfert
Assistance : Marc-Olivier Méhu




SOURCES & CREDITS :

   NOAA       Earth
Advisory